createdAt,value
2019-02-27T00:01:49.857Z,14.13
2019-02-27T00:03:51.479Z,14.27
2019-02-27T00:05:53.136Z,13.57
2019-02-27T00:07:55.030Z,16.37
2019-02-27T00:09:56.972Z,13.27
2019-02-27T00:11:58.644Z,14.93
2019-02-27T00:14:00.297Z,15.33
2019-02-27T00:16:02.264Z,15.20
2019-02-27T00:18:04.420Z,13.67
2019-02-27T00:20:06.097Z,13.90
2019-02-27T00:22:07.736Z,15.03
2019-02-27T00:24:09.382Z,13.20
2019-02-27T00:26:11.042Z,15.47
2019-02-27T00:28:12.940Z,13.03
2019-02-27T00:30:14.628Z,15.70
2019-02-27T00:32:18.670Z,16.53
2019-02-27T00:34:19.846Z,15.90
2019-02-27T00:36:21.503Z,15.50
2019-02-27T00:38:25.183Z,16.20
2019-02-27T00:40:26.718Z,15.80
2019-02-27T00:42:33.442Z,15.83
2019-02-27T00:44:34.792Z,16.60
2019-02-27T00:46:36.109Z,14.83
2019-02-27T00:48:38.009Z,16.37
2019-02-27T00:50:39.753Z,15.50
2019-02-27T00:52:41.541Z,13.40
2019-02-27T00:54:43.196Z,12.07
2019-02-27T00:56:45.729Z,12.40
2019-02-27T00:58:47.676Z,11.50
2019-02-27T01:00:49.330Z,12.80
2019-02-27T01:02:53.457Z,12.40
2019-02-27T01:04:54.861Z,13.57
2019-02-27T01:06:56.537Z,14.40
2019-02-27T01:08:58.516Z,14.27
2019-02-27T01:11:00.201Z,12.40
2019-02-27T01:13:02.129Z,13.77
2019-02-27T01:15:04.108Z,13.00
2019-02-27T01:17:05.757Z,13.40
2019-02-27T01:19:07.396Z,15.00
2019-02-27T01:21:09.053Z,14.17
2019-02-27T01:23:11.591Z,13.63
2019-02-27T01:25:13.300Z,12.50
2019-02-27T01:27:14.932Z,13.50
2019-02-27T01:29:18.083Z,13.90
2019-02-27T01:31:21.931Z,14.43
2019-02-27T01:33:23.696Z,14.10
2019-02-27T01:35:25.613Z,15.10
2019-02-27T01:37:31.344Z,13.80
2019-02-27T01:39:31.399Z,14.50
2019-02-27T01:41:33.064Z,14.50
2019-02-27T01:43:36.932Z,14.83
2019-02-27T01:45:38.336Z,15.73
2019-02-27T01:47:40.008Z,15.70
2019-02-27T01:49:41.942Z,16.90
2019-02-27T01:51:43.601Z,15.60
2019-02-27T01:53:45.505Z,15.93
2019-02-27T01:55:47.152Z,15.90
2019-02-27T01:57:48.820Z,15.33
2019-02-27T01:59:51.064Z,14.70
2019-02-27T02:01:53.029Z,17.00
2019-02-27T02:03:54.779Z,14.73
2019-02-27T02:05:58.783Z,15.93
2019-02-27T02:08:00.236Z,15.13
2019-02-27T02:10:01.881Z,15.80
2019-02-27T02:12:09.902Z,15.40
2019-02-27T02:14:21.683Z,15.40
2019-02-27T02:16:48.528Z,12.57
2019-02-27T04:17:38.617Z,11.05
2019-02-27T04:19:40.576Z,10.70
2019-02-27T04:21:42.367Z,12.00
2019-02-27T04:23:47.993Z,12.40
2019-02-27T04:25:47.965Z,13.28
2019-02-27T04:27:55.264Z,14.78
2019-02-27T04:29:53.505Z,13.78
2019-02-27T04:31:55.180Z,15.70
2019-02-27T04:34:00.175Z,15.25
2019-02-27T04:36:01.780Z,15.23
2019-02-27T04:38:03.806Z,15.32
2019-02-27T04:40:05.531Z,14.65
2019-02-27T04:42:07.201Z,15.60
2019-02-27T04:44:08.875Z,15.23
2019-02-27T04:46:10.523Z,14.13
2019-02-27T04:48:12.481Z,13.90
2019-02-27T04:50:14.413Z,13.90
2019-02-27T04:52:16.076Z,14.53
2019-02-27T04:54:17.772Z,14.55
2019-02-27T04:56:23.117Z,15.13
2019-02-27T04:58:23.021Z,14.15
2019-02-27T05:00:26.248Z,14.35
2019-02-27T05:02:28.589Z,16.25
2019-02-27T05:04:34.796Z,17.23
2019-02-27T05:06:34.140Z,15.07
2019-02-27T05:08:36.068Z,16.23
2019-02-27T05:10:38.219Z,16.05
2019-02-27T05:12:41.345Z,13.98
2019-02-27T05:14:43.367Z,16.48
2019-02-27T05:16:47.309Z,16.95
2019-02-27T05:18:48.572Z,16.45
2019-02-27T05:20:50.283Z,17.73
2019-02-27T05:22:51.950Z,18.55
2019-02-27T05:24:53.613Z,18.37
2019-02-27T05:26:55.274Z,18.15
2019-02-27T05:28:57.276Z,18.67
2019-02-27T05:30:59.204Z,16.87
2019-02-27T05:33:02.232Z,15.50
2019-02-27T05:35:04.720Z,16.20
2019-02-27T05:37:06.379Z,17.92
2019-02-27T05:39:08.036Z,16.57
2019-02-27T05:41:09.712Z,14.30
2019-02-27T05:43:13.868Z,13.78
2019-02-27T05:45:15.193Z,13.68
2019-02-27T05:47:17.156Z,15.20
2019-02-27T05:49:18.828Z,16.85
2019-02-27T05:51:20.480Z,16.93
2019-02-27T05:53:22.858Z,16.05
2019-02-27T05:55:24.713Z,18.67
2019-02-27T05:57:26.389Z,16.85
2019-02-27T05:59:29.467Z,17.37
2019-02-27T06:01:31.888Z,16.85
2019-02-27T06:03:33.658Z,15.98
2019-02-27T06:05:36.009Z,16.65
2019-02-27T06:07:38.609Z,14.70
2019-02-27T06:09:41.443Z,14.60
2019-02-27T06:11:43.842Z,14.87
2019-02-27T06:13:47.605Z,15.83
2019-02-27T06:15:49.630Z,15.55
2019-02-27T06:17:51.276Z,19.40
2019-02-27T06:19:52.949Z,16.97
2019-02-27T06:21:56.265Z,16.12
2019-02-27T06:23:58.516Z,15.90
2019-02-27T06:26:00.291Z,16.07
2019-02-27T06:28:02.281Z,16.20
2019-02-27T06:30:04.867Z,17.12
2019-02-27T06:32:06.540Z,16.70
2019-02-27T06:34:08.217Z,16.65
2019-02-27T06:36:09.889Z,17.00
2019-02-27T06:38:11.852Z,16.70
2019-02-27T06:40:14.268Z,15.65
2019-02-27T06:42:15.953Z,16.95
2019-02-27T06:44:19.084Z,17.75
2019-02-27T06:46:21.323Z,16.52
2019-02-27T06:48:22.968Z,16.35
2019-02-27T06:50:25.480Z,17.07
2019-02-27T06:52:27.950Z,18.50
2019-02-27T06:54:29.604Z,17.27
2019-02-27T06:56:31.287Z,16.48
2019-02-27T06:58:32.956Z,16.87
2019-02-27T07:00:36.729Z,17.40
2019-02-27T07:02:38.173Z,16.07
2019-02-27T07:04:40.275Z,17.30
2019-02-27T07:06:42.193Z,18.33
2019-02-27T07:08:43.837Z,17.77
2019-02-27T07:10:45.500Z,15.93
2019-02-27T07:12:47.152Z,18.60
2019-02-27T07:14:48.816Z,19.20
2019-02-27T07:16:50.477Z,18.57
2019-02-27T07:18:52.144Z,21.07
2019-02-27T07:20:55.767Z,22.10
2019-02-27T07:22:57.367Z,20.53
2019-02-27T07:24:59.261Z,21.80
2019-02-27T07:27:00.907Z,20.40
2019-02-27T07:29:02.544Z,20.10
2019-02-27T07:31:04.228Z,19.40
2019-02-27T07:33:06.696Z,18.77
2019-02-27T07:35:09.056Z,21.03
2019-02-27T07:37:12.935Z,20.60
2019-02-27T07:39:14.288Z,21.57
2019-02-27T07:41:20.214Z,22.90
2019-02-27T07:43:19.572Z,23.27
2019-02-27T07:45:22.661Z,20.77
2019-02-27T07:47:24.789Z,23.30
2019-02-27T07:49:28.363Z,20.77
2019-02-27T07:51:30.008Z,20.50
2019-02-27T07:53:31.657Z,20.43
2019-02-27T07:55:33.314Z,22.40
2019-02-27T07:57:34.967Z,23.40
2019-02-27T07:59:38.251Z,22.63
2019-02-27T08:01:43.799Z,21.07
2019-02-27T08:03:45.593Z,20.57
2019-02-27T08:05:47.622Z,20.57
2019-02-27T08:07:49.978Z,23.90
2019-02-27T08:09:51.885Z,22.23
2019-02-27T08:11:53.864Z,22.77
2019-02-27T08:13:55.535Z,20.90
2019-02-27T08:15:57.973Z,22.47
2019-02-27T08:18:00.032Z,20.67
2019-02-27T08:20:01.753Z,21.47
2019-02-27T08:22:03.437Z,23.30
2019-02-27T08:24:07.467Z,23.03
2019-02-27T08:26:09.438Z,23.67
2019-02-27T08:28:11.096Z,21.03
2019-02-27T08:30:15.286Z,23.43
2019-02-27T08:32:16.970Z,20.67
2019-02-27T08:34:18.637Z,20.03
2019-02-27T08:36:20.318Z,20.97
2019-02-27T08:38:23.558Z,21.60
2019-02-27T08:40:25.565Z,20.10
2019-02-27T08:42:28.381Z,21.10
2019-02-27T08:44:30.049Z,20.50
2019-02-27T08:46:36.720Z,20.33
2019-02-27T08:48:35.294Z,20.50
2019-02-27T08:50:36.945Z,20.30
2019-02-27T08:52:38.870Z,20.63
2019-02-27T08:54:40.562Z,21.27
2019-02-27T08:56:44.140Z,19.90
2019-02-27T08:58:45.802Z,19.70
2019-02-27T09:00:48.092Z,21.30
2019-02-27T09:02:49.859Z,20.80
2019-02-27T09:04:51.551Z,21.03
2019-02-27T09:06:53.236Z,20.70
2019-02-27T09:08:54.926Z,22.17
2019-02-27T09:10:56.602Z,19.70
2019-02-27T09:13:05.391Z,20.97
2019-02-27T09:15:01.856Z,19.67
2019-02-27T09:17:03.859Z,21.67
2019-02-27T09:19:09.265Z,20.17
2019-02-27T09:21:09.246Z,21.40
2019-02-27T09:23:10.945Z,20.03
2019-02-27T09:25:12.629Z,20.87
2019-02-27T09:27:14.310Z,20.27
2019-02-27T09:29:18.716Z,19.43
2019-02-27T09:31:19.959Z,19.27
2019-02-27T09:33:21.642Z,20.30
2019-02-27T09:35:23.337Z,20.30
2019-02-27T09:37:25.305Z,21.47
2019-02-27T09:39:30.699Z,21.53
2019-02-27T09:41:30.574Z,20.77
2019-02-27T09:43:32.448Z,19.77
2019-02-27T09:45:35.065Z,19.57
2019-02-27T09:47:37.289Z,20.80
2019-02-27T09:49:40.768Z,21.37
2019-02-27T09:51:42.637Z,21.23
2019-02-27T09:53:44.725Z,21.47
2019-02-27T09:55:46.630Z,21.30
2019-02-27T09:57:48.361Z,21.47
2019-02-27T09:59:51.151Z,21.10
2019-02-27T10:01:53.653Z,21.43
2019-02-27T10:03:56.714Z,19.93
2019-02-27T10:05:58.397Z,21.00
2019-02-27T10:08:01.141Z,20.53
2019-02-27T10:10:03.076Z,19.70
2019-02-27T10:12:04.905Z,21.80
2019-02-27T10:14:06.576Z,22.07
2019-02-27T10:16:08.257Z,20.67
2019-02-27T10:18:09.933Z,20.00
2019-02-27T10:20:11.629Z,19.67
2019-02-27T10:22:13.321Z,20.97
2019-02-27T10:24:14.989Z,22.03
2019-02-27T10:26:19.525Z,20.40
2019-02-27T10:28:20.229Z,21.10
2019-02-27T10:30:21.916Z,21.47
2019-02-27T10:32:23.582Z,21.50
2019-02-27T10:34:25.293Z,22.00
2019-02-27T10:36:26.982Z,22.30
2019-02-27T10:38:28.934Z,21.50
2019-02-27T10:40:30.622Z,22.80
2019-02-27T10:42:35.822Z,22.73
2019-02-27T10:44:37.597Z,21.47
2019-02-27T10:46:39.553Z,22.93
2019-02-27T10:48:41.209Z,19.27
2019-02-27T10:50:42.877Z,17.67
2019-02-27T10:52:44.544Z,18.60
2019-02-27T10:54:46.237Z,18.33
2019-02-27T10:56:47.986Z,18.90
2019-02-27T10:58:49.661Z,18.57
2019-02-27T11:00:51.349Z,19.10
2019-02-27T11:02:53.038Z,19.97
2019-02-27T11:04:54.717Z,20.27
2019-02-27T11:06:56.381Z,19.70
2019-02-27T11:08:58.058Z,20.37
2019-02-27T11:10:59.751Z,20.80
2019-02-27T11:13:05.737Z,20.70
2019-02-27T11:15:07.558Z,20.90
2019-02-27T11:17:09.434Z,20.33
2019-02-27T11:19:11.226Z,21.70
2019-02-27T11:21:13.161Z,20.53
2019-02-27T11:23:14.825Z,17.57
2019-02-27T11:25:22.317Z,20.20
2019-02-27T11:27:21.018Z,18.60
2019-02-27T11:29:23.872Z,18.20
2019-02-27T11:31:26.270Z,16.43
2019-02-27T11:33:32.775Z,16.57
2019-02-27T11:35:31.546Z,15.40
2019-02-27T11:37:33.217Z,12.43
2019-02-27T11:39:34.917Z,12.80
2019-02-27T11:41:36.581Z,11.77
2019-02-27T11:43:40.841Z,12.10
2019-02-27T11:45:41.821Z,12.03
2019-02-27T11:47:47.705Z,13.40
2019-02-27T11:49:47.361Z,13.63
2019-02-27T11:51:50.638Z,13.87
2019-02-27T11:53:52.586Z,15.07
2019-02-27T11:55:54.290Z,16.40
2019-02-27T11:57:55.953Z,16.60
2019-02-27T11:59:57.941Z,16.90
2019-02-27T12:01:59.633Z,15.33
2019-02-27T12:04:01.370Z,15.60
2019-02-27T12:06:05.291Z,15.83
2019-02-27T12:08:06.622Z,15.37
2019-02-27T12:10:11.040Z,14.80
2019-02-27T12:12:12.725Z,16.37
2019-02-27T12:14:14.417Z,14.23
2019-02-27T12:16:18.467Z,15.97
2019-02-27T12:18:19.661Z,13.23
2019-02-27T12:20:21.755Z,15.17
2019-02-27T12:22:23.425Z,13.00
2019-02-27T12:24:25.670Z,15.00
2019-02-27T12:26:27.805Z,14.43
2019-02-27T12:28:29.473Z,15.13
2019-02-27T12:30:31.166Z,14.60
2019-02-27T12:32:33.154Z,15.50
2019-02-27T12:34:37.062Z,14.20
2019-02-27T12:36:38.484Z,14.80
2019-02-27T12:38:42.355Z,15.43
2019-02-27T12:40:43.733Z,14.50
2019-02-27T12:42:45.405Z,14.93
2019-02-27T12:44:47.073Z,15.70
2019-02-27T12:46:48.998Z,15.30
2019-02-27T12:48:50.670Z,15.13
2019-02-27T12:50:52.353Z,15.13
2019-02-27T12:52:54.143Z,15.40
2019-02-27T12:54:59.025Z,15.67
2019-02-27T12:57:00.058Z,15.40
2019-02-27T12:59:01.740Z,15.23
2019-02-27T13:01:03.705Z,15.70
2019-02-27T13:03:08.433Z,15.13
2019-02-27T13:05:10.090Z,15.70
2019-02-27T13:07:11.762Z,14.73
2019-02-27T13:09:13.429Z,15.30
2019-02-27T13:11:15.133Z,15.57
2019-02-27T13:13:16.902Z,15.27
2019-02-27T13:15:19.685Z,13.77
2019-02-27T13:17:22.231Z,14.60
2019-02-27T13:19:24.050Z,13.37
2019-02-27T13:21:25.753Z,13.00
2019-02-27T13:23:27.442Z,12.90
2019-02-27T13:25:30.321Z,12.33
2019-02-27T13:27:32.821Z,14.13
2019-02-27T13:29:34.490Z,15.27
2019-02-27T13:31:36.181Z,15.73
2019-02-27T13:33:38.894Z,15.37
2019-02-27T13:35:40.921Z,15.67
2019-02-27T13:37:44.657Z,16.73
2019-02-27T13:39:46.601Z,15.80
2019-02-27T13:41:48.281Z,15.77
2019-02-27T13:43:49.956Z,16.67
2019-02-27T13:45:51.612Z,17.07
2019-02-27T13:47:53.297Z,17.10
2019-02-27T13:49:54.966Z,16.23
2019-02-27T13:51:56.654Z,16.60
2019-02-27T13:54:00.656Z,16.50
2019-02-27T13:56:01.873Z,16.77
2019-02-27T13:58:03.991Z,16.20
2019-02-27T14:00:09.106Z,16.57
2019-02-27T14:02:11.484Z,15.77
2019-02-27T14:04:13.562Z,15.70
2019-02-27T14:06:15.220Z,15.33
2019-02-27T14:08:16.900Z,16.40
2019-02-27T14:10:20.614Z,15.40
2019-02-27T14:12:22.178Z,14.90
2019-02-27T14:14:23.869Z,14.83
2019-02-27T14:16:25.706Z,15.80
2019-02-27T14:18:27.381Z,15.97
2019-02-27T14:20:29.354Z,15.60
2019-02-27T14:22:31.242Z,15.33
2019-02-27T14:24:32.939Z,15.30
2019-02-27T14:26:34.604Z,14.67
2019-02-27T14:28:36.286Z,13.37
2019-02-27T14:30:40.846Z,15.20
2019-02-27T14:32:45.042Z,14.37
2019-02-27T14:34:46.117Z,13.97
2019-02-27T14:36:49.062Z,13.70
2019-02-27T14:38:53.339Z,13.87
2019-02-27T14:40:54.789Z,12.70
2019-02-27T14:42:56.774Z,12.60
2019-02-27T14:44:58.442Z,12.20
2019-02-27T14:47:00.385Z,13.23
2019-02-27T14:49:02.085Z,12.03
2019-02-27T14:51:07.166Z,12.43
2019-02-27T14:53:07.326Z,13.13
2019-02-27T14:55:09.701Z,13.33
2019-02-27T14:57:12.904Z,11.83
2019-02-27T14:59:14.953Z,12.00
2019-02-27T15:01:16.618Z,12.17
2019-02-27T15:03:18.637Z,11.10
2019-02-27T15:05:20.581Z,10.30
2019-02-27T15:07:22.762Z,11.00
2019-02-27T15:09:24.525Z,10.50
2019-02-27T15:11:26.185Z,10.07
2019-02-27T15:13:28.312Z,11.60
2019-02-27T15:15:30.737Z,10.63
2019-02-27T15:17:32.777Z,10.93
2019-02-27T15:19:35.490Z,11.37
2019-02-27T15:21:37.877Z,10.80
2019-02-27T15:23:39.557Z,9.70
2019-02-27T15:25:43.135Z,10.90
2019-02-27T15:27:45.298Z,10.60
2019-02-27T15:29:47.253Z,10.27
2019-02-27T15:31:49.194Z,11.40
2019-02-27T15:33:51.119Z,10.70
2019-02-27T15:35:55.422Z,12.27
2019-02-27T15:37:56.353Z,10.73
2019-02-27T15:39:58.008Z,11.83
2019-02-27T15:41:59.678Z,11.23
2019-02-27T15:44:01.353Z,11.13
2019-02-27T15:46:03.353Z,11.20
2019-02-27T15:48:06.973Z,11.70
2019-02-27T15:50:10.246Z,11.07
2019-02-27T15:52:11.910Z,11.60
2019-02-27T15:54:13.588Z,11.17
2019-02-27T15:56:15.249Z,12.17
2019-02-27T15:58:16.935Z,12.23
2019-02-27T16:00:19.783Z,13.20
2019-02-27T16:02:21.443Z,12.00
2019-02-27T16:04:23.125Z,13.33
2019-02-27T16:06:25.591Z,12.63
2019-02-27T16:08:27.365Z,13.00
2019-02-27T16:10:29.058Z,12.20
2019-02-27T16:12:30.721Z,11.97
2019-02-27T16:14:32.713Z,11.60
2019-02-27T16:16:34.405Z,12.47
2019-02-27T16:18:37.092Z,11.87
2019-02-27T16:20:39.561Z,12.30
2019-02-27T16:22:41.241Z,12.50
2019-02-27T16:24:43.915Z,13.53
2019-02-27T16:26:45.777Z,12.00
2019-02-27T16:28:48.925Z,13.30
2019-02-27T16:30:51.033Z,13.37
2019-02-27T16:32:52.726Z,12.17
2019-02-27T16:34:54.425Z,12.70
2019-02-27T16:36:56.090Z,12.50
2019-02-27T16:38:57.761Z,12.20
2019-02-27T16:40:59.450Z,12.23
2019-02-27T16:43:01.103Z,12.40
2019-02-27T16:45:03.058Z,12.40
2019-02-27T16:47:04.739Z,12.30
2019-02-27T16:49:09.633Z,12.60
2019-02-27T16:51:10.069Z,12.13
2019-02-27T16:53:16.206Z,11.77
2019-02-27T16:55:16.130Z,11.47
2019-02-27T16:57:21.161Z,11.23
2019-02-27T16:59:21.375Z,10.97
2019-02-27T17:01:23.049Z,12.00
2019-02-27T17:03:24.749Z,12.47
2019-02-27T17:05:26.422Z,12.00
2019-02-27T17:07:28.097Z,11.47
2019-02-27T17:09:29.789Z,12.27
2019-02-27T17:11:32.527Z,12.83
2019-02-27T17:13:34.853Z,12.83
2019-02-27T17:15:36.587Z,13.07
2019-02-27T17:17:38.402Z,12.07
2019-02-27T17:19:40.105Z,12.10
2019-02-27T17:21:41.794Z,13.50
2019-02-27T17:23:46.553Z,12.07
2019-02-27T17:25:47.096Z,13.00
2019-02-27T17:27:50.933Z,12.23
2019-02-27T17:29:52.593Z,13.80
2019-02-27T17:31:55.776Z,12.53
2019-02-27T17:33:57.867Z,13.10
2019-02-27T17:35:59.639Z,12.00
2019-02-27T17:38:01.295Z,13.80
2019-02-27T17:40:05.245Z,12.10
2019-02-27T17:42:06.905Z,11.47
2019-02-27T17:44:08.801Z,12.13
2019-02-27T17:46:10.489Z,12.60
2019-02-27T17:48:13.061Z,11.70
2019-02-27T17:50:14.970Z,12.73
2019-02-27T17:52:16.653Z,11.00
2019-02-27T17:54:18.597Z,12.50
2019-02-27T17:56:20.333Z,10.60
2019-02-27T17:58:22.355Z,10.07
2019-02-27T18:00:29.425Z,9.67
2019-02-27T18:02:33.132Z,10.70
2019-02-27T18:04:34.989Z,9.43
2019-02-27T18:06:36.666Z,11.10
2019-02-27T18:08:38.732Z,10.07
2019-02-27T18:10:40.778Z,12.00
2019-02-27T18:12:42.457Z,11.57
2019-02-27T18:14:46.875Z,11.10
2019-02-27T18:16:48.801Z,11.80
2019-02-27T18:18:50.471Z,12.10
2019-02-27T18:20:52.144Z,13.70
2019-02-27T18:22:53.809Z,12.20
2019-02-27T18:24:55.781Z,12.57
2019-02-27T18:26:57.464Z,12.30
2019-02-27T18:28:59.130Z,11.90
2019-02-27T18:31:00.825Z,12.20
2019-02-27T18:33:02.518Z,11.70
2019-02-27T18:35:04.194Z,11.20
2019-02-27T18:37:05.904Z,11.63
2019-02-27T18:39:07.668Z,11.67
2019-02-27T18:41:09.349Z,11.00
2019-02-27T18:43:11.046Z,11.40
2019-02-27T18:45:15.355Z,13.30
2019-02-27T18:47:17.974Z,11.90
2019-02-27T18:49:19.691Z,12.33
2019-02-27T18:51:21.374Z,12.30
2019-02-27T18:53:23.038Z,11.83
2019-02-27T18:55:29.615Z,11.63
2019-02-27T18:57:28.293Z,12.27
2019-02-27T18:59:30.253Z,12.07
2019-02-27T19:01:32.177Z,9.37
2019-02-27T19:03:33.849Z,10.67
2019-02-27T19:05:38.160Z,10.87
2019-02-27T19:07:39.327Z,10.33
2019-02-27T19:09:41.222Z,10.77
2019-02-27T19:11:42.957Z,10.30
2019-02-27T19:13:44.713Z,10.80
2019-02-27T19:15:46.481Z,9.17
2019-02-27T19:17:48.466Z,10.10
2019-02-27T19:19:50.404Z,8.13
2019-02-27T19:21:52.083Z,9.73
2019-02-27T19:23:54.021Z,9.73
2019-02-27T19:25:55.690Z,9.10
2019-02-27T19:27:57.374Z,9.43
2019-02-27T19:29:59.437Z,8.77
2019-02-27T19:32:01.209Z,9.67
2019-02-27T19:34:02.877Z,9.63
2019-02-27T19:36:04.552Z,10.60
2019-02-27T19:38:06.242Z,10.77
2019-02-27T19:40:09.953Z,11.20
2019-02-27T19:42:13.125Z,10.10
2019-02-27T19:44:15.233Z,10.20
2019-02-27T19:46:16.896Z,11.97
2019-02-27T19:48:18.877Z,10.60
2019-02-27T19:50:20.585Z,10.57
2019-02-27T19:52:22.257Z,10.80
2019-02-27T19:54:24.222Z,11.63
2019-02-27T19:56:25.890Z,12.40
2019-02-27T19:58:27.865Z,12.00
2019-02-27T20:00:33.535Z,11.93
2019-02-27T20:02:33.150Z,10.93
2019-02-27T20:04:34.817Z,10.50
2019-02-27T20:06:38.424Z,11.40
2019-02-27T20:08:44.350Z,10.50
2019-02-27T20:10:44.446Z,9.93
2019-02-27T20:12:47.767Z,12.30
2019-02-27T20:14:50.075Z,11.43
2019-02-27T20:16:54.982Z,9.80
2019-02-27T20:18:55.945Z,11.27
2019-02-27T20:20:57.618Z,9.37
2019-02-27T20:22:59.322Z,9.03
2019-02-27T20:25:01.007Z,8.30
2019-02-27T20:27:02.670Z,10.33
2019-02-27T20:29:05.333Z,10.70
2019-02-27T20:31:07.521Z,11.00
2019-02-27T20:33:09.193Z,9.43
2019-02-27T20:35:10.993Z,9.80
2019-02-27T20:37:12.973Z,10.80
2019-02-27T20:39:14.653Z,12.10
2019-02-27T20:41:16.330Z,11.07
2019-02-27T20:43:18.047Z,10.53
2019-02-27T20:45:19.730Z,10.17
2019-02-27T20:47:21.992Z,10.93
2019-02-27T20:49:24.576Z,9.93
2019-02-27T20:51:26.242Z,9.30
2019-02-27T20:53:27.934Z,8.87
2019-02-27T20:55:30.866Z,9.87
2019-02-27T20:57:33.313Z,9.33
2019-02-27T20:59:35.342Z,9.57
2019-02-27T21:01:37.037Z,9.57
2019-02-27T21:03:38.822Z,9.40
2019-02-27T21:05:41.827Z,9.50
2019-02-27T21:07:43.765Z,9.87
2019-02-27T21:09:45.904Z,11.17
2019-02-27T21:11:47.717Z,10.80
2019-02-27T21:13:50.214Z,11.40
2019-02-27T21:15:51.990Z,11.03
2019-02-27T21:17:57.561Z,9.67
2019-02-27T21:19:57.641Z,11.00
2019-02-27T21:21:59.305Z,11.67
2019-02-27T21:24:05.339Z,10.70
2019-02-27T21:26:04.561Z,11.00
2019-02-27T21:28:07.666Z,10.63
2019-02-27T21:30:12.149Z,10.80
2019-02-27T21:32:14.151Z,10.93
2019-02-27T21:34:19.228Z,11.40
2019-02-27T21:36:19.409Z,12.70
2019-02-27T21:38:21.095Z,13.23
2019-02-27T21:40:22.773Z,13.00
2019-02-27T21:42:24.837Z,12.10
2019-02-27T21:44:29.221Z,11.23
2019-02-27T21:46:30.417Z,12.40
2019-02-27T21:48:32.122Z,10.30
2019-02-27T21:50:33.827Z,10.80
2019-02-27T21:52:35.593Z,11.13
2019-02-27T21:54:39.359Z,11.57
2019-02-27T21:56:40.860Z,11.20
2019-02-27T21:58:42.564Z,11.00
2019-02-27T22:00:45.023Z,11.03
2019-02-27T22:02:48.012Z,12.30
2019-02-27T22:04:49.713Z,11.80
2019-02-27T22:06:51.383Z,12.07
2019-02-27T22:08:53.089Z,11.27
2019-02-27T22:10:54.760Z,11.40
2019-02-27T22:12:56.722Z,12.10
2019-02-27T22:15:00.204Z,11.53
2019-02-27T22:17:05.159Z,12.00
2019-02-27T22:19:05.897Z,11.83
2019-02-27T22:21:07.561Z,11.97
2019-02-27T22:23:09.237Z,11.83
2019-02-27T22:25:10.929Z,10.77
2019-02-27T22:27:13.419Z,11.47
2019-02-27T22:29:15.302Z,10.70
2019-02-27T22:31:16.986Z,11.97
2019-02-27T22:33:22.097Z,11.50
2019-02-27T22:35:22.273Z,11.53
2019-02-27T22:37:23.938Z,11.60
2019-02-27T22:39:25.709Z,11.17
2019-02-27T22:41:27.393Z,11.33
2019-02-27T22:43:29.057Z,11.23
2019-02-27T22:45:30.741Z,11.47
2019-02-27T22:47:32.418Z,10.23
2019-02-27T22:49:34.092Z,12.07
2019-02-27T22:51:36.098Z,11.50
2019-02-27T22:53:37.764Z,10.33
2019-02-27T22:55:42.286Z,12.17
2019-02-27T22:57:43.305Z,11.13
2019-02-27T22:59:44.984Z,11.47
2019-02-27T23:01:50.878Z,11.30
2019-02-27T23:03:57.995Z,11.37
2019-02-27T23:05:58.825Z,11.17
2019-02-27T23:08:00.496Z,12.20
2019-02-27T23:10:02.187Z,11.57
2019-02-27T23:12:03.967Z,11.93
2019-02-27T23:14:05.734Z,11.50
2019-02-27T23:16:07.693Z,12.00
2019-02-27T23:18:09.386Z,10.80
2019-02-27T23:20:13.417Z,11.63
2019-02-27T23:22:15.082Z,11.83
2019-02-27T23:24:16.752Z,11.83
2019-02-27T23:26:20.080Z,11.20
2019-02-27T23:28:22.041Z,12.70
2019-02-27T23:30:23.816Z,12.57
2019-02-27T23:32:28.429Z,11.93
2019-02-27T23:34:29.433Z,11.77
2019-02-27T23:36:31.105Z,11.70
2019-02-27T23:38:34.765Z,12.30
2019-02-27T23:40:37.561Z,12.13
2019-02-27T23:42:39.258Z,13.17
2019-02-27T23:44:40.930Z,11.83
2019-02-27T23:46:49.625Z,11.80
2019-02-27T23:48:46.805Z,12.27
2019-02-27T23:50:48.485Z,12.37
2019-02-27T23:52:53.249Z,12.00
2019-02-27T23:54:53.813Z,13.20
2019-02-27T23:56:55.768Z,12.10
2019-02-27T23:59:02.339Z,13.53
